METAR Data
IDs: Format: Raw Decoded Include TAF

Data at: 0143 UTC 24 Sep 2018

KDCY 240135Z AUTO 11003KT 10SM OVC028 20/16 A3006 RMK AO2 T02000162
KDCY 240115Z AUTO 12004KT 10SM OVC030 20/16 A3005 RMK AO2 T02000161
KDCY 240055Z AUTO 12004KT 10SM OVC028 20/16 A3004 RMK AO2 T02010161
KDCY 240035Z AUTO 14004KT 10SM OVC030 20/16 A3004 RMK AO2 T02030160
KDCY 240015Z AUTO 16004KT 10SM OVC030 21/16 A3004 RMK AO2 T02050158
KDCY 232355Z AUTO 15003KT 10SM OVC030 21/16 A3003 RMK AO2 T02060157 10248 20206
KDCY 232335Z AUTO 13004KT 10SM OVC034 21/16 A3004 RMK AO2 T02120155
KDCY 232315Z AUTO 11006KT 10SM OVC034 22/16 A3004 RMK AO2 T02160155
KDCY 232255Z AUTO 10006KT 10SM BKN036 BKN050 22/15 A3004 RMK AO2 T02190151
KDCY 232235Z AUTO 10007KT 10SM SCT037 BKN050 22/15 A3004 RMK AO2 T02200149
KDCY 232215Z AUTO 10008KT 10SM BKN037 OVC050 23/15 A3003 RMK AO2 T02250150
KDCY 232155Z AUTO 10008KT 10SM OVC037 23/15 A3004 RMK AO2 T02260149
KDCY 232135Z AUTO 11009KT 10SM OVC037 23/15 A3004 RMK AO2 T02300150
KDCY 232115Z AUTO 11008KT 10SM OVC037 23/15 A3004 RMK AO2 T02300150
KDCY 232055Z AUTO 12007KT 10SM OVC037 23/15 A3003 RMK AO2 T02340150
KDCY 232035Z AUTO 12009KT 10SM SCT035 OVC075 23/15 A3004 RMK AO2 T02320149
KDCY 232015Z AUTO 12009KT 10SM SCT060 OVC075 24/15 A3004 RMK AO2 T02390150
KDCY 231955Z AUTO 11010KT 10SM SCT030 OVC075 24/15 A3005 RMK AO2 T02410150
KDCY 231935Z AUTO 12006KT 10SM SCT033 OVC075 24/15 A3005 RMK AO2 T02400150
KDCY 231915Z AUTO 12007KT 10SM BKN031 OVC075 24/15 A3005 RMK AO2 T02420149
KDCY 231855Z AUTO 11009G14KT 10SM OVC031 24/15 A3006 RMK AO2 T02400151
KDCY 231835Z AUTO 11008KT 10SM OVC031 24/15 A3007 RMK AO2 T02430148
KDCY 231815Z AUTO 07007KT 10SM BKN031 OVC035 24/15 A3008 RMK AO2 T02390146
KDCY 231755Z AUTO 07008KT 10SM OVC031 25/15 A3008 RMK AO2 T02470145 10247 20150
KDCY 231735Z AUTO 08007KT 10SM BKN029 BKN035 24/15 A3008 RMK AO2 T02370147
KDCY 231715Z AUTO 06008KT 10SM BKN027 BKN031 23/15 A3008 RMK AO2 T02330148
KDCY 231655Z AUTO 06008KT 10SM BKN025 24/15 A3008 RMK AO2 T02350149
KDCY 231635Z AUTO 06008KT 10SM BKN023 23/15 A3008 RMK AO2 T02290147
KDCY 231615Z AUTO 07008KT 10SM SCT021 22/14 A3009 RMK AO2 T02200143
KDCY 231555Z AUTO 06009KT 10SM CLR 22/15 A3010 RMK AO2 T02170145
KDCY 231535Z AUTO 08010G15KT 10SM CLR 21/15 A3011 RMK AO2 T02070145
KDCY 231515Z AUTO 08008KT 10SM BKN025 20/14 A3011 RMK AO2 T02000144
KDCY 231455Z AUTO 07008KT 10SM OVC023 19/15 A3012 RMK AO2 T01880150
KDCY 231435Z AUTO 06007KT 10SM OVC025 18/15 A3012 RMK AO2 T01830149
KDCY 231415Z AUTO 08005KT 10SM SCT025 18/14 A3012 RMK AO2 T01780144
KDCY 231355Z AUTO 06003KT 10SM CLR 17/14 A3011 RMK AO2 T01680143
KDCY 231335Z AUTO 04005KT 10SM CLR 16/14 A3011 RMK AO2 T01610144
KDCY 231315Z AUTO 02004KT 10SM CLR 16/15 A3010 RMK AO2 T01580145
KDCY 231255Z AUTO 03003KT 10SM CLR 16/14 A3010 RMK AO2 T01550144
KDCY 231235Z AUTO 03003KT 10SM SCT028 15/14 A3010 RMK AO2 T01530143
KDCY 231215Z AUTO 00000KT 10SM SCT028 15/14 A3010 RMK AO2 T01500140
KDCY 231150Z AUTO 00000KT 10SM SCT042 15/14 A3008 RMK AO2 70018 T01520141 10155 20149
KDCY 231135Z AUTO 05003KT 10SM BKN042 15/14 A3008 RMK AO2 T01530141
KDCY 231115Z AUTO 04003KT 10SM SCT026 OVC042 16/14 A3008 RMK AO2 T01550141
KDCY 231055Z AUTO 06003KT 10SM SCT024 BKN031 OVC042 16/14 A3007 RMK AO2 T01550141
KDCY 231035Z AUTO 04003KT 10SM OVC024 16/14 A3008 RMK AO2 T01550142
KDCY 231015Z AUTO 05003KT 10SM BKN024 OVC043 16/15 A3008 RMK AO2 T01550145
KDCY 230955Z AUTO 05004KT 10SM OVC040 15/14 A3008 RMK AO2 T01520142
KDCY 230935Z AUTO 04004KT 10SM BKN037 OVC043 15/14 A3008 RMK AO2 T01520142
KDCY 230915Z AUTO 04004KT 10SM OVC041 15/14 A3007 RMK AO2 T01510141
KDCY 230850Z AUTO 02003KT 10SM OVC039 15/14 A3008 RMK AO2 T01510141
KDCY 230835Z AUTO 03003KT 10SM OVC039 15/14 A3008 RMK AO2 T01500140
KDCY 230815Z AUTO 03003KT 10SM SCT009 OVC037 15/14 A3008 RMK AO2 T01500140
KDCY 230755Z AUTO 00000KT 10SM BKN009 OVC037 15/14 A3008 RMK AO2 T01490139
KDCY 230735Z AUTO 00000KT 10SM BKN009 BKN037 BKN050 15/14 A3008 RMK AO2 T01490139
KDCY 230715Z AUTO 06004KT 10SM BKN009 BKN037 OVC050 15/14 A3009 RMK AO2 T01510141
KDCY 230655Z AUTO 04004KT 10SM BKN037 OVC050 15/14 A3010 RMK AO2 T01510141
KDCY 230635Z AUTO 06005KT 10SM OVC050 15/14 A3008 RMK AO2 T01510141
KDCY 230615Z AUTO 05005KT 10SM OVC050 15/14 A3010 RMK AO2 T01510141
KDCY 230555Z AUTO 06005KT 10SM SCT009 OVC050 15/14 A3011 RMK AO2 T01510141 10152 20140 401850140
KDCY 230535Z AUTO 04004KT 10SM SCT009 OVC048 15/14 A3013 RMK AO2 T01510141
KDCY 230515Z AUTO 07004KT 10SM SCT010 OVC048 15/14 A3012 RMK AO2 T01510141
KDCY 230455Z AUTO 06004KT 10SM BKN010 OVC046 15/14 A3013 RMK AO2 T01510141
KDCY 230435Z AUTO 07004KT 10SM OVC046 15/14 A3014 RMK AO2 T01510141
KDCY 230415Z AUTO 00000KT 10SM OVC046 15/14 A3014 RMK AO2 T01500140
KDCY 230355Z AUTO 00000KT 10SM OVC044 15/14 A3015 RMK AO2 T01500140
KDCY 230335Z AUTO 05003KT 10SM OVC044 15/14 A3015 RMK AO2 T01480138
KDCY 230315Z AUTO 00000KT 10SM OVC046 15/14 A3016 RMK AO2 T01480138
KDCY 230255Z AUTO 05003KT 10SM OVC046 15/14 A3017 RMK AO2 T01470137
KDCY 230235Z AUTO 03003KT 10SM OVC046 15/14 A3016 RMK AO2 T01460136
KDCY 230215Z AUTO 00000KT 10SM OVC050 15/14 A3016 RMK AO2 T01450135
KDCY 230155Z AUTO 00000KT 10SM OVC050 15/14 A3017 RMK AO2 T01450135
KDCY 230135Z AUTO 00000KT 10SM SCT050 OVC070 14/13 A3017 RMK AO2 T01400130
KDCY 230115Z AUTO 36003KT 10SM SCT070 14/13 A3017 RMK AO2 T01400130
KDCY 230055Z AUTO 00000KT 10SM SCT012 15/14 A3016 RMK AO2 T01450135
KDCY 230035Z AUTO 05004KT 10SM SCT012 SCT075 15/14 A3015 RMK AO2 T01460136
KDCY 230015Z AUTO 06003KT 10SM SCT012 OVC075 15/14 A3015 RMK AO2 T01500140
KDCY 222355Z AUTO 07003KT 10SM OVC075 15/14 A3015 RMK AO2 60016 T01520142 10157 20151
KDCY 222335Z AUTO 06006KT 10SM SCT011 BKN075 15/14 A3015 RMK AO2 T01520142
KDCY 222315Z AUTO 04004KT 10SM SCT011 SCT075 15/14 A3015 RMK AO2 T01510141
KDCY 222255Z AUTO 06004KT 10SM SCT075 15/14 A3015 RMK AO2 T01520142
KDCY 222235Z AUTO 05005KT 10SM CLR 15/14 A3015 RMK AO2 T01520142
KDCY 222215Z AUTO 04004KT 10SM -DZ SCT011 SCT018 BKN075 15/14 A3015 RMK AO2 T01510141
KDCY 222155Z AUTO 04003KT 10SM DZ SCT013 BKN050 OVC075 15/14 A3017 RMK AO2 P0004 T01520142
KDCY 222135Z AUTO 05005KT 10SM RA SCT015 BKN065 OVC080 15/14 A3016 RMK AO2 P0003 T01520142
KDCY 222115Z AUTO 05005KT 10SM -RA SCT065 BKN075 OVC090 15/14 A3017 RMK AO2 P0002 T01520142
KDCY 222055Z AUTO 03004KT 7SM RA SCT013 BKN080 OVC090 15/14 A3017 RMK AO2 P0005 60012 T01520142
KDCY 222035Z AUTO 02004KT 10SM -RA BKN013 BKN024 OVC080 15/14 A3018 RMK AO2 P0002 T01510141
KDCY 222015Z AUTO 01004KT 10SM -RA SCT024 SCT070 OVC080 15/14 A3019 RMK AO2 P0001 T01520142
KDCY 221955Z AUTO 06003KT 7SM RA SCT055 SCT070 OVC090 15/14 A3018 RMK AO2 P0005 T01520139
KDCY 221930Z AUTO 04003KT 10SM -RA BKN015 BKN031 OVC070 15/14 A3019 RMK AO2 P0001 T01520138
KDCY 221915Z AUTO 04005KT 10SM -RA BKN013 BKN026 OVC085 15/13 A3019 RMK AO2 T01530132
KDCY 221855Z AUTO 03004KT 10SM -RA SCT013 SCT070 OVC085 16/13 A3020 RMK AO2 P0002 T01550132
KDCY 221835Z AUTO 05004KT 10SM -RA BKN070 OVC085 16/13 A3020 RMK AO2 P0001 T01560130
KDCY 221815Z AUTO 04006KT 10SM -RA SCT037 BKN070 OVC085 16/12 A3020 RMK AO2 T01560124
KDCY 221755Z AUTO 04005KT 10SM -RA SCT039 BKN065 OVC075 16/13 A3021 RMK AO2 P0001 60002 T01570126 10164 20155
KDCY 221735Z AUTO 04004KT 10SM -RA SCT032 BKN060 OVC090 16/13 A3021 RMK AO2 T01560125
KDCY 221715Z AUTO 05006KT 10SM DZ SCT060 SCT070 OVC090 16/12 A3022 RMK AO2 T01560121
KDCY 221655Z AUTO 05006KT 10SM RA SCT065 OVC090 16/12 A3022 RMK AO2 P0001 T01560121
KDCY 221635Z AUTO 04005KT 10SM RA OVC090 16/12 A3023 RMK AO2 T01560120
KDCY 221615Z AUTO 04004KT 10SM -RA OVC100 16/12 A3023 RMK AO2 T01560115
KDCY 221555Z AUTO 03004KT 10SM -RA SCT047 SCT070 OVC100 16/11 A3024 RMK AO2 T01570113
KDCY 221535Z AUTO 03004KT 10SM -RA SCT050 SCT070 OVC090 16/11 A3024 RMK AO2 T01590109
KDCY 221515Z AUTO 05005KT 10SM -RA SCT070 OVC100 16/11 A3024 RMK AO2 T01630106
KDCY 221455Z AUTO 07006KT 10SM SCT075 OVC100 16/11 A3023 RMK AO2 T01630106
KDCY 221435Z AUTO 05005KT 10SM -DZ SCT075 OVC100 16/11 A3024 RMK AO2 T01610107
KDCY 221415Z AUTO 05005KT 10SM -RA SCT080 OVC100 16/11 A3023 RMK AO2 T01610108
KDCY 221355Z AUTO 03004KT 10SM -DZ BKN100 OVC120 16/11 A3023 RMK AO2 T01570108